sensor_id;sensor_type;location;lat;lon;timestamp;P1;durP1;ratioP1;P2;durP2;ratioP2
73733;SDS011;62039;50.000;9.064;2022-10-03T00:01:03;3.17;;;2.70;;
73733;SDS011;62039;50.000;9.064;2022-10-03T00:03:39;4.40;;;2.70;;
73733;SDS011;62039;50.000;9.064;2022-10-03T00:06:13;5.90;;;3.27;;
73733;SDS011;62039;50.000;9.064;2022-10-03T00:08:56;5.33;;;3.67;;
73733;SDS011;62039;50.000;9.064;2022-10-03T00:11:36;9.70;;;2.97;;
73733;SDS011;62039;50.000;9.064;2022-10-03T00:14:14;2.77;;;2.40;;
73733;SDS011;62039;50.000;9.064;2022-10-03T00:16:47;6.30;;;3.27;;
73733;SDS011;62039;50.000;9.064;2022-10-03T00:19:22;5.03;;;3.10;;
73733;SDS011;62039;50.000;9.064;2022-10-03T00:21:59;5.33;;;2.80;;
73733;SDS011;62039;50.000;9.064;2022-10-03T00:24:39;2.90;;;2.60;;
73733;SDS011;62039;50.000;9.064;2022-10-03T00:27:15;3.80;;;2.77;;
73733;SDS011;62039;50.000;9.064;2022-10-03T00:30:04;4.47;;;3.20;;
73733;SDS011;62039;50.000;9.064;2022-10-03T00:32:41;5.57;;;3.60;;
73733;SDS011;62039;50.000;9.064;2022-10-03T00:35:23;7.57;;;3.77;;
73733;SDS011;62039;50.000;9.064;2022-10-03T00:38:13;6.00;;;2.70;;
73733;SDS011;62039;50.000;9.064;2022-10-03T00:40:56;7.23;;;2.97;;
73733;SDS011;62039;50.000;9.064;2022-10-03T00:46:52;4.33;;;3.17;;
73733;SDS011;62039;50.000;9.064;2022-10-03T00:49:46;4.60;;;3.30;;
73733;SDS011;62039;50.000;9.064;2022-10-03T00:52:38;4.13;;;3.10;;
73733;SDS011;62039;50.000;9.064;2022-10-03T00:55:22;4.30;;;3.90;;
73733;SDS011;62039;50.000;9.064;2022-10-03T00:57:59;4.70;;;4.20;;
73733;SDS011;62039;50.000;9.064;2022-10-03T01:00:56;4.53;;;3.23;;
73733;SDS011;62039;50.000;9.064;2022-10-03T01:03:33;5.27;;;3.17;;
73733;SDS011;62039;50.000;9.064;2022-10-03T01:06:12;3.70;;;3.40;;
73733;SDS011;62039;50.000;9.064;2022-10-03T01:08:49;3.33;;;3.03;;
73733;SDS011;62039;50.000;9.064;2022-10-03T01:11:27;3.50;;;3.00;;
73733;SDS011;62039;50.000;9.064;2022-10-03T01:14:08;3.37;;;2.87;;
73733;SDS011;62039;50.000;9.064;2022-10-03T01:16:52;3.90;;;3.20;;
73733;SDS011;62039;50.000;9.064;2022-10-03T01:19:34;6.20;;;3.30;;
73733;SDS011;62039;50.000;9.064;2022-10-03T01:22:19;7.10;;;3.00;;
73733;SDS011;62039;50.000;9.064;2022-10-03T01:25:05;6.90;;;3.27;;
73733;SDS011;62039;50.000;9.064;2022-10-03T01:27:39;5.23;;;3.13;;
73733;SDS011;62039;50.000;9.064;2022-10-03T01:30:12;7.57;;;2.97;;
73733;SDS011;62039;50.000;9.064;2022-10-03T01:32:40;4.23;;;3.00;;
73733;SDS011;62039;50.000;9.064;2022-10-03T01:35:25;3.93;;;3.40;;
73733;SDS011;62039;50.000;9.064;2022-10-03T01:38:00;6.70;;;4.00;;
73733;SDS011;62039;50.000;9.064;2022-10-03T01:40:34;6.73;;;3.93;;
73733;SDS011;62039;50.000;9.064;2022-10-03T01:43:07;4.97;;;3.30;;
73733;SDS011;62039;50.000;9.064;2022-10-03T01:45:45;7.57;;;3.70;;
73733;SDS011;62039;50.000;9.064;2022-10-03T01:48:20;5.47;;;3.50;;
73733;SDS011;62039;50.000;9.064;2022-10-03T01:50:55;5.27;;;3.70;;
73733;SDS011;62039;50.000;9.064;2022-10-03T01:53:28;5.47;;;3.47;;
73733;SDS011;62039;50.000;9.064;2022-10-03T01:56:07;5.47;;;3.63;;
73733;SDS011;62039;50.000;9.064;2022-10-03T01:58:39;7.87;;;3.40;;
73733;SDS011;62039;50.000;9.064;2022-10-03T02:01:20;10.40;;;3.60;;
73733;SDS011;62039;50.000;9.064;2022-10-03T02:03:52;8.40;;;3.07;;
73733;SDS011;62039;50.000;9.064;2022-10-03T02:06:26;7.20;;;3.07;;
73733;SDS011;62039;50.000;9.064;2022-10-03T02:09:01;5.67;;;3.23;;
73733;SDS011;62039;50.000;9.064;2022-10-03T02:11:33;6.93;;;3.73;;
73733;SDS011;62039;50.000;9.064;2022-10-03T02:14:13;10.00;;;4.00;;
73733;SDS011;62039;50.000;9.064;2022-10-03T02:16:53;5.10;;;3.63;;
73733;SDS011;62039;50.000;9.064;2022-10-03T02:19:22;3.60;;;3.07;;
73733;SDS011;62039;50.000;9.064;2022-10-03T02:21:52;3.60;;;3.30;;
73733;SDS011;62039;50.000;9.064;2022-10-03T02:24:23;7.23;;;3.00;;
73733;SDS011;62039;50.000;9.064;2022-10-03T02:30:00;4.97;;;2.60;;
73733;SDS011;62039;50.000;9.064;2022-10-03T02:35:50;5.93;;;3.07;;
73733;SDS011;62039;50.000;9.064;2022-10-03T02:38:33;4.17;;;3.23;;
73733;SDS011;62039;50.000;9.064;2022-10-03T02:41:33;3.23;;;2.93;;
73733;SDS011;62039;50.000;9.064;2022-10-03T02:44:40;4.33;;;2.80;;
73733;SDS011;62039;50.000;9.064;2022-10-03T02:50:57;7.70;;;3.10;;
73733;SDS011;62039;50.000;9.064;2022-10-03T02:53:47;4.83;;;2.73;;
73733;SDS011;62039;50.000;9.064;2022-10-03T02:56:44;6.33;;;3.17;;
73733;SDS011;62039;50.000;9.064;2022-10-03T02:59:42;9.60;;;2.90;;
73733;SDS011;62039;50.000;9.064;2022-10-03T03:05:40;4.57;;;2.60;;
73733;SDS011;62039;50.000;9.064;2022-10-03T03:08:33;7.67;;;3.10;;
73733;SDS011;62039;50.000;9.064;2022-10-03T03:14:36;3.67;;;2.80;;
73733;SDS011;62039;50.000;9.064;2022-10-03T03:17:22;4.03;;;2.77;;
73733;SDS011;62039;50.000;9.064;2022-10-03T03:20:01;2.83;;;2.63;;
73733;SDS011;62039;50.000;9.064;2022-10-03T03:22:40;3.10;;;2.80;;
73733;SDS011;62039;50.000;9.064;2022-10-03T03:25:25;3.10;;;2.60;;
73733;SDS011;62039;50.000;9.064;2022-10-03T03:28:11;3.60;;;2.90;;
73733;SDS011;62039;50.000;9.064;2022-10-03T03:30:47;2.70;;;2.50;;
73733;SDS011;62039;50.000;9.064;2022-10-03T03:33:23;3.23;;;2.93;;
73733;SDS011;62039;50.000;9.064;2022-10-03T03:36:00;3.57;;;2.60;;
73733;SDS011;62039;50.000;9.064;2022-10-03T03:38:37;3.63;;;3.13;;
73733;SDS011;62039;50.000;9.064;2022-10-03T03:41:12;3.07;;;2.70;;
73733;SDS011;62039;50.000;9.064;2022-10-03T03:44:09;3.83;;;3.23;;
73733;SDS011;62039;50.000;9.064;2022-10-03T03:46:53;3.17;;;2.87;;
73733;SDS011;62039;50.000;9.064;2022-10-03T03:49:37;4.83;;;3.03;;
73733;SDS011;62039;50.000;9.064;2022-10-03T03:52:21;8.77;;;2.70;;
73733;SDS011;62039;50.000;9.064;2022-10-03T03:55:05;3.17;;;2.83;;
73733;SDS011;62039;50.000;9.064;2022-10-03T03:57:59;6.13;;;3.07;;
73733;SDS011;62039;50.000;9.064;2022-10-03T04:00:51;4.47;;;2.87;;
73733;SDS011;62039;50.000;9.064;2022-10-03T04:03:35;7.10;;;3.00;;
73733;SDS011;62039;50.000;9.064;2022-10-03T04:06:13;5.50;;;3.33;;
73733;SDS011;62039;50.000;9.064;2022-10-03T04:08:52;2.80;;;2.57;;
73733;SDS011;62039;50.000;9.064;2022-10-03T04:11:36;5.00;;;2.80;;
73733;SDS011;62039;50.000;9.064;2022-10-03T04:14:17;5.70;;;2.50;;
73733;SDS011;62039;50.000;9.064;2022-10-03T04:17:06;3.30;;;2.70;;
73733;SDS011;62039;50.000;9.064;2022-10-03T04:19:49;3.07;;;2.70;;
73733;SDS011;62039;50.000;9.064;2022-10-03T04:22:39;5.10;;;2.53;;
73733;SDS011;62039;50.000;9.064;2022-10-03T04:25:18;2.80;;;2.60;;
73733;SDS011;62039;50.000;9.064;2022-10-03T04:28:16;3.00;;;2.60;;
73733;SDS011;62039;50.000;9.064;2022-10-03T04:30:56;2.63;;;2.43;;
73733;SDS011;62039;50.000;9.064;2022-10-03T04:33:35;3.90;;;3.23;;
73733;SDS011;62039;50.000;9.064;2022-10-03T04:36:14;3.13;;;2.77;;
73733;SDS011;62039;50.000;9.064;2022-10-03T04:39:00;4.40;;;3.40;;
73733;SDS011;62039;50.000;9.064;2022-10-03T04:41:36;3.13;;;2.83;;
73733;SDS011;62039;50.000;9.064;2022-10-03T04:44:10;2.97;;;2.67;;
73733;SDS011;62039;50.000;9.064;2022-10-03T04:46:53;3.20;;;2.67;;
73733;SDS011;62039;50.000;9.064;2022-10-03T04:49:26;3.37;;;2.53;;
73733;SDS011;62039;50.000;9.064;2022-10-03T04:51:56;3.10;;;2.80;;
73733;SDS011;62039;50.000;9.064;2022-10-03T04:54:27;3.70;;;3.40;;
73733;SDS011;62039;50.000;9.064;2022-10-03T04:57:06;3.40;;;3.10;;
73733;SDS011;62039;50.000;9.064;2022-10-03T04:59:46;3.10;;;2.80;;
73733;SDS011;62039;50.000;9.064;2022-10-03T05:02:20;3.53;;;2.93;;
73733;SDS011;62039;50.000;9.064;2022-10-03T05:04:57;3.03;;;2.70;;
73733;SDS011;62039;50.000;9.064;2022-10-03T05:07:34;3.63;;;2.73;;
73733;SDS011;62039;50.000;9.064;2022-10-03T05:10:16;3.37;;;2.63;;
73733;SDS011;62039;50.000;9.064;2022-10-03T05:12:52;3.77;;;2.67;;
73733;SDS011;62039;50.000;9.064;2022-10-03T05:15:27;3.40;;;3.10;;
73733;SDS011;62039;50.000;9.064;2022-10-03T05:17:59;3.80;;;2.90;;
73733;SDS011;62039;50.000;9.064;2022-10-03T05:20:43;3.10;;;2.73;;
73733;SDS011;62039;50.000;9.064;2022-10-03T05:23:17;2.93;;;2.63;;
73733;SDS011;62039;50.000;9.064;2022-10-03T05:26:03;4.93;;;3.20;;
73733;SDS011;62039;50.000;9.064;2022-10-03T05:28:57;2.80;;;2.60;;
73733;SDS011;62039;50.000;9.064;2022-10-03T05:31:33;3.10;;;2.80;;
73733;SDS011;62039;50.000;9.064;2022-10-03T05:34:11;3.57;;;3.27;;
73733;SDS011;62039;50.000;9.064;2022-10-03T05:36:49;3.30;;;3.00;;
73733;SDS011;62039;50.000;9.064;2022-10-03T05:39:32;2.63;;;2.43;;
73733;SDS011;62039;50.000;9.064;2022-10-03T05:45:15;3.03;;;2.73;;
73733;SDS011;62039;50.000;9.064;2022-10-03T05:47:49;2.73;;;2.53;;
73733;SDS011;62039;50.000;9.064;2022-10-03T05:53:41;3.60;;;3.30;;
73733;SDS011;62039;50.000;9.064;2022-10-03T05:56:32;4.47;;;3.50;;
73733;SDS011;62039;50.000;9.064;2022-10-03T05:59:40;3.60;;;3.20;;
73733;SDS011;62039;50.000;9.064;2022-10-03T06:02:42;5.60;;;3.50;;
73733;SDS011;62039;50.000;9.064;2022-10-03T06:05:22;3.33;;;3.00;;
73733;SDS011;62039;50.000;9.064;2022-10-03T06:08:01;3.70;;;3.37;;
73733;SDS011;62039;50.000;9.064;2022-10-03T06:10:45;3.47;;;3.00;;
73733;SDS011;62039;50.000;9.064;2022-10-03T06:13:18;3.33;;;3.03;;
73733;SDS011;62039;50.000;9.064;2022-10-03T06:15:53;4.00;;;3.07;;
73733;SDS011;62039;50.000;9.064;2022-10-03T06:27:40;3.50;;;3.20;;
73733;SDS011;62039;50.000;9.064;2022-10-03T06:30:27;3.50;;;3.20;;
73733;SDS011;62039;50.000;9.064;2022-10-03T06:39:25;3.97;;;3.50;;
73733;SDS011;62039;50.000;9.064;2022-10-03T06:51:33;3.40;;;3.07;;
73733;SDS011;62039;50.000;9.064;2022-10-03T06:54:22;4.50;;;3.77;;
73733;SDS011;62039;50.000;9.064;2022-10-03T06:57:41;4.77;;;4.27;;
73733;SDS011;62039;50.000;9.064;2022-10-03T07:00:31;5.43;;;3.93;;
73733;SDS011;62039;50.000;9.064;2022-10-03T07:03:19;4.77;;;4.27;;
73733;SDS011;62039;50.000;9.064;2022-10-03T07:06:10;5.27;;;4.77;;
73733;SDS011;62039;50.000;9.064;2022-10-03T07:11:59;7.33;;;5.30;;
73733;SDS011;62039;50.000;9.064;2022-10-03T07:14:46;4.53;;;4.13;;
73733;SDS011;62039;50.000;9.064;2022-10-03T07:17:29;5.00;;;4.50;;
73733;SDS011;62039;50.000;9.064;2022-10-03T07:20:17;5.00;;;4.50;;
73733;SDS011;62039;50.000;9.064;2022-10-03T07:23:33;5.43;;;4.60;;
73733;SDS011;62039;50.000;9.064;2022-10-03T07:26:19;4.40;;;4.00;;
73733;SDS011;62039;50.000;9.064;2022-10-03T07:32:25;4.73;;;4.20;;
73733;SDS011;62039;50.000;9.064;2022-10-03T07:35:27;4.47;;;4.07;;
73733;SDS011;62039;50.000;9.064;2022-10-03T07:38:11;4.10;;;3.70;;
73733;SDS011;62039;50.000;9.064;2022-10-03T07:41:14;4.67;;;3.90;;
73733;SDS011;62039;50.000;9.064;2022-10-03T07:43:50;6.17;;;4.20;;
73733;SDS011;62039;50.000;9.064;2022-10-03T07:49:45;4.70;;;4.10;;
73733;SDS011;62039;50.000;9.064;2022-10-03T07:52:41;5.70;;;4.17;;
73733;SDS011;62039;50.000;9.064;2022-10-03T07:55:24;5.87;;;4.13;;
73733;SDS011;62039;50.000;9.064;2022-10-03T07:58:13;4.43;;;4.03;;
73733;SDS011;62039;50.000;9.064;2022-10-03T08:00:56;4.70;;;4.30;;
73733;SDS011;62039;50.000;9.064;2022-10-03T08:06:50;7.50;;;4.53;;
73733;SDS011;62039;50.000;9.064;2022-10-03T08:09:43;7.07;;;4.77;;
73733;SDS011;62039;50.000;9.064;2022-10-03T08:12:30;5.00;;;4.37;;
73733;SDS011;62039;50.000;9.064;2022-10-03T08:15:08;4.93;;;4.40;;
73733;SDS011;62039;50.000;9.064;2022-10-03T08:20:47;6.07;;;4.50;;
73733;SDS011;62039;50.000;9.064;2022-10-03T08:23:21;6.43;;;4.77;;
73733;SDS011;62039;50.000;9.064;2022-10-03T08:26:10;5.07;;;4.43;;
73733;SDS011;62039;50.000;9.064;2022-10-03T08:28:53;9.63;;;5.43;;
73733;SDS011;62039;50.000;9.064;2022-10-03T08:31:57;5.50;;;4.63;;
73733;SDS011;62039;50.000;9.064;2022-10-03T08:34:51;6.30;;;4.90;;
73733;SDS011;62039;50.000;9.064;2022-10-03T08:37:33;7.57;;;4.27;;
73733;SDS011;62039;50.000;9.064;2022-10-03T08:40:39;5.27;;;4.50;;
73733;SDS011;62039;50.000;9.064;2022-10-03T08:43:38;4.50;;;4.10;;
73733;SDS011;62039;50.000;9.064;2022-10-03T08:49:39;4.43;;;3.67;;
73733;SDS011;62039;50.000;9.064;2022-10-03T08:52:26;4.47;;;3.77;;
73733;SDS011;62039;50.000;9.064;2022-10-03T08:55:06;7.50;;;4.67;;
73733;SDS011;62039;50.000;9.064;2022-10-03T08:58:04;6.10;;;4.57;;
73733;SDS011;62039;50.000;9.064;2022-10-03T09:00:54;5.33;;;3.53;;
73733;SDS011;62039;50.000;9.064;2022-10-03T09:03:53;6.97;;;4.00;;
73733;SDS011;62039;50.000;9.064;2022-10-03T09:06:59;6.77;;;4.33;;
73733;SDS011;62039;50.000;9.064;2022-10-03T09:09:57;6.83;;;3.50;;
73733;SDS011;62039;50.000;9.064;2022-10-03T09:12:48;5.73;;;3.77;;
73733;SDS011;62039;50.000;9.064;2022-10-03T09:15:55;3.47;;;3.13;;
73733;SDS011;62039;50.000;9.064;2022-10-03T09:24:49;9.27;;;3.20;;
73733;SDS011;62039;50.000;9.064;2022-10-03T09:27:34;4.40;;;3.37;;
73733;SDS011;62039;50.000;9.064;2022-10-03T09:30:28;3.60;;;3.03;;
73733;SDS011;62039;50.000;9.064;2022-10-03T09:36:49;7.00;;;3.60;;
73733;SDS011;62039;50.000;9.064;2022-10-03T09:43:07;4.17;;;3.20;;
73733;SDS011;62039;50.000;9.064;2022-10-03T09:45:58;4.20;;;3.13;;
73733;SDS011;62039;50.000;9.064;2022-10-03T09:48:45;4.90;;;3.10;;
73733;SDS011;62039;50.000;9.064;2022-10-03T09:51:31;3.77;;;2.90;;
73733;SDS011;62039;50.000;9.064;2022-10-03T09:57:22;5.07;;;3.00;;
73733;SDS011;62039;50.000;9.064;2022-10-03T10:00:18;4.77;;;3.20;;
73733;SDS011;62039;50.000;9.064;2022-10-03T10:03:04;4.77;;;3.33;;
73733;SDS011;62039;50.000;9.064;2022-10-03T10:05:51;3.20;;;2.47;;
73733;SDS011;62039;50.000;9.064;2022-10-03T10:08:36;5.37;;;2.40;;
73733;SDS011;62039;50.000;9.064;2022-10-03T10:11:28;3.07;;;2.10;;
73733;SDS011;62039;50.000;9.064;2022-10-03T10:14:21;2.93;;;2.20;;
73733;SDS011;62039;50.000;9.064;2022-10-03T10:19:57;5.60;;;2.70;;
73733;SDS011;62039;50.000;9.064;2022-10-03T10:28:41;2.97;;;2.57;;
73733;SDS011;62039;50.000;9.064;2022-10-03T10:38:07;3.20;;;2.10;;
73733;SDS011;62039;50.000;9.064;2022-10-03T10:41:10;4.83;;;2.30;;
73733;SDS011;62039;50.000;9.064;2022-10-03T10:47:23;4.03;;;1.90;;
73733;SDS011;62039;50.000;9.064;2022-10-03T10:50:26;2.60;;;1.63;;
73733;SDS011;62039;50.000;9.064;2022-10-03T10:56:50;3.73;;;1.70;;
73733;SDS011;62039;50.000;9.064;2022-10-03T11:18:34;3.50;;;1.83;;
73733;SDS011;62039;50.000;9.064;2022-10-03T11:31:19;3.10;;;1.93;;
73733;SDS011;62039;50.000;9.064;2022-10-03T11:34:18;2.40;;;1.60;;
73733;SDS011;62039;50.000;9.064;2022-10-03T11:37:17;1.80;;;1.50;;
73733;SDS011;62039;50.000;9.064;2022-10-03T11:39:55;2.93;;;1.70;;
73733;SDS011;62039;50.000;9.064;2022-10-03T11:42:34;2.00;;;1.47;;
73733;SDS011;62039;50.000;9.064;2022-10-03T11:45:15;2.70;;;1.53;;
73733;SDS011;62039;50.000;9.064;2022-10-03T11:48:00;3.23;;;1.50;;
73733;SDS011;62039;50.000;9.064;2022-10-03T11:50:43;2.13;;;1.23;;
73733;SDS011;62039;50.000;9.064;2022-10-03T11:53:21;2.47;;;1.50;;
73733;SDS011;62039;50.000;9.064;2022-10-03T11:56:01;1.60;;;1.10;;
73733;SDS011;62039;50.000;9.064;2022-10-03T11:58:53;2.13;;;1.30;;
73733;SDS011;62039;50.000;9.064;2022-10-03T12:01:38;3.03;;;1.20;;
73733;SDS011;62039;50.000;9.064;2022-10-03T12:04:22;2.97;;;1.37;;
73733;SDS011;62039;50.000;9.064;2022-10-03T12:06:58;1.60;;;1.20;;
73733;SDS011;62039;50.000;9.064;2022-10-03T12:09:29;2.80;;;1.20;;
73733;SDS011;62039;50.000;9.064;2022-10-03T12:12:08;1.67;;;1.23;;
73733;SDS011;62039;50.000;9.064;2022-10-03T12:14:41;2.97;;;1.90;;
73733;SDS011;62039;50.000;9.064;2022-10-03T12:17:10;2.83;;;1.50;;
73733;SDS011;62039;50.000;9.064;2022-10-03T12:19:44;4.00;;;2.17;;
73733;SDS011;62039;50.000;9.064;2022-10-03T12:22:21;2.20;;;1.57;;
73733;SDS011;62039;50.000;9.064;2022-10-03T12:24:57;2.10;;;1.50;;
73733;SDS011;62039;50.000;9.064;2022-10-03T12:27:32;5.13;;;2.43;;
73733;SDS011;62039;50.000;9.064;2022-10-03T12:30:10;1.63;;;1.33;;
73733;SDS011;62039;50.000;9.064;2022-10-03T12:32:40;1.63;;;1.20;;
73733;SDS011;62039;50.000;9.064;2022-10-03T12:35:24;2.60;;;1.10;;
73733;SDS011;62039;50.000;9.064;2022-10-03T12:38:06;1.40;;;0.70;;
73733;SDS011;62039;50.000;9.064;2022-10-03T12:40:59;1.87;;;0.80;;
73733;SDS011;62039;50.000;9.064;2022-10-03T12:43:40;1.10;;;0.60;;
73733;SDS011;62039;50.000;9.064;2022-10-03T12:46:17;1.97;;;0.97;;
73733;SDS011;62039;50.000;9.064;2022-10-03T12:48:56;1.27;;;0.70;;
73733;SDS011;62039;50.000;9.064;2022-10-03T12:51:32;0.67;;;0.63;;
73733;SDS011;62039;50.000;9.064;2022-10-03T12:54:13;1.73;;;1.00;;
73733;SDS011;62039;50.000;9.064;2022-10-03T12:56:56;1.67;;;0.90;;
73733;SDS011;62039;50.000;9.064;2022-10-03T12:59:36;3.30;;;1.10;;
73733;SDS011;62039;50.000;9.064;2022-10-03T13:02:11;1.43;;;1.00;;
73733;SDS011;62039;50.000;9.064;2022-10-03T13:04:51;1.87;;;1.00;;
73733;SDS011;62039;50.000;9.064;2022-10-03T13:07:38;2.73;;;0.80;;
73733;SDS011;62039;50.000;9.064;2022-10-03T13:10:17;1.23;;;0.90;;
73733;SDS011;62039;50.000;9.064;2022-10-03T13:12:52;1.67;;;1.07;;
73733;SDS011;62039;50.000;9.064;2022-10-03T13:15:38;2.17;;;1.00;;
73733;SDS011;62039;50.000;9.064;2022-10-03T13:18:28;2.30;;;0.90;;
73733;SDS011;62039;50.000;9.064;2022-10-03T13:21:00;1.37;;;0.83;;
73733;SDS011;62039;50.000;9.064;2022-10-03T13:23:53;1.07;;;0.90;;
73733;SDS011;62039;50.000;9.064;2022-10-03T13:26:24;1.73;;;0.90;;
73733;SDS011;62039;50.000;9.064;2022-10-03T13:32:08;2.47;;;0.83;;
73733;SDS011;62039;50.000;9.064;2022-10-03T13:34:45;1.90;;;1.33;;
73733;SDS011;62039;50.000;9.064;2022-10-03T13:37:24;1.97;;;1.20;;
73733;SDS011;62039;50.000;9.064;2022-10-03T13:39:59;2.13;;;1.27;;
73733;SDS011;62039;50.000;9.064;2022-10-03T13:42:30;2.27;;;1.27;;
73733;SDS011;62039;50.000;9.064;2022-10-03T13:45:04;1.80;;;1.20;;
73733;SDS011;62039;50.000;9.064;2022-10-03T13:47:47;2.27;;;0.93;;
73733;SDS011;62039;50.000;9.064;2022-10-03T13:50:18;4.30;;;1.30;;
73733;SDS011;62039;50.000;9.064;2022-10-03T13:52:51;2.90;;;1.33;;
73733;SDS011;62039;50.000;9.064;2022-10-03T13:55:30;2.37;;;1.50;;
73733;SDS011;62039;50.000;9.064;2022-10-03T14:01:07;1.80;;;1.20;;
73733;SDS011;62039;50.000;9.064;2022-10-03T14:03:51;1.47;;;1.23;;
73733;SDS011;62039;50.000;9.064;2022-10-03T14:06:31;2.07;;;1.13;;
73733;SDS011;62039;50.000;9.064;2022-10-03T14:09:18;2.57;;;1.53;;
73733;SDS011;62039;50.000;9.064;2022-10-03T14:11:59;2.73;;;1.20;;
73733;SDS011;62039;50.000;9.064;2022-10-03T14:14:49;2.40;;;1.30;;
73733;SDS011;62039;50.000;9.064;2022-10-03T14:17:38;1.20;;;1.10;;
73733;SDS011;62039;50.000;9.064;2022-10-03T14:20:19;2.37;;;1.47;;
73733;SDS011;62039;50.000;9.064;2022-10-03T14:22:53;2.20;;;1.37;;
73733;SDS011;62039;50.000;9.064;2022-10-03T14:25:27;2.40;;;1.30;;
73733;SDS011;62039;50.000;9.064;2022-10-03T14:28:01;3.60;;;1.73;;
73733;SDS011;62039;50.000;9.064;2022-10-03T14:30:42;2.27;;;1.33;;
73733;SDS011;62039;50.000;9.064;2022-10-03T14:33:32;2.90;;;1.60;;
73733;SDS011;62039;50.000;9.064;2022-10-03T14:36:12;1.83;;;1.37;;
73733;SDS011;62039;50.000;9.064;2022-10-03T14:38:53;2.33;;;1.67;;
73733;SDS011;62039;50.000;9.064;2022-10-03T14:41:38;1.80;;;1.43;;
73733;SDS011;62039;50.000;9.064;2022-10-03T14:44:12;2.67;;;1.50;;
73733;SDS011;62039;50.000;9.064;2022-10-03T14:46:45;2.30;;;1.70;;
73733;SDS011;62039;50.000;9.064;2022-10-03T14:49:16;2.63;;;1.27;;
73733;SDS011;62039;50.000;9.064;2022-10-03T14:52:06;2.77;;;1.40;;
73733;SDS011;62039;50.000;9.064;2022-10-03T14:54:38;3.93;;;1.60;;
73733;SDS011;62039;50.000;9.064;2022-10-03T14:57:18;3.60;;;1.80;;
73733;SDS011;62039;50.000;9.064;2022-10-03T14:59:53;2.97;;;1.57;;
73733;SDS011;62039;50.000;9.064;2022-10-03T15:02:24;2.77;;;1.77;;
73733;SDS011;62039;50.000;9.064;2022-10-03T15:04:54;1.70;;;1.33;;
73733;SDS011;62039;50.000;9.064;2022-10-03T15:07:31;2.40;;;1.53;;
73733;SDS011;62039;50.000;9.064;2022-10-03T15:10:01;2.93;;;1.70;;
73733;SDS011;62039;50.000;9.064;2022-10-03T15:12:31;3.03;;;1.60;;
73733;SDS011;62039;50.000;9.064;2022-10-03T15:15:01;2.47;;;1.63;;
73733;SDS011;62039;50.000;9.064;2022-10-03T15:17:33;2.43;;;1.60;;
73733;SDS011;62039;50.000;9.064;2022-10-03T15:20:03;2.00;;;1.40;;
73733;SDS011;62039;50.000;9.064;2022-10-03T15:22:33;3.13;;;2.00;;
73733;SDS011;62039;50.000;9.064;2022-10-03T15:25:02;2.67;;;1.63;;
73733;SDS011;62039;50.000;9.064;2022-10-03T15:27:32;2.00;;;1.60;;
73733;SDS011;62039;50.000;9.064;2022-10-03T15:30:03;4.20;;;1.63;;
73733;SDS011;62039;50.000;9.064;2022-10-03T15:32:33;2.70;;;1.47;;
73733;SDS011;62039;50.000;9.064;2022-10-03T15:35:04;2.87;;;1.83;;
73733;SDS011;62039;50.000;9.064;2022-10-03T15:37:32;2.27;;;1.60;;
73733;SDS011;62039;50.000;9.064;2022-10-03T15:40:05;3.23;;;1.87;;
73733;SDS011;62039;50.000;9.064;2022-10-03T15:42:44;3.70;;;2.47;;
73733;SDS011;62039;50.000;9.064;2022-10-03T15:45:19;3.33;;;1.80;;
73733;SDS011;62039;50.000;9.064;2022-10-03T15:47:50;3.50;;;1.70;;
73733;SDS011;62039;50.000;9.064;2022-10-03T15:50:18;2.70;;;2.00;;
73733;SDS011;62039;50.000;9.064;2022-10-03T15:52:49;1.70;;;1.60;;
73733;SDS011;62039;50.000;9.064;2022-10-03T15:55:18;2.80;;;1.57;;
73733;SDS011;62039;50.000;9.064;2022-10-03T15:57:47;2.43;;;1.80;;
73733;SDS011;62039;50.000;9.064;2022-10-03T16:00:22;2.63;;;1.83;;
73733;SDS011;62039;50.000;9.064;2022-10-03T16:02:55;3.10;;;1.70;;
73733;SDS011;62039;50.000;9.064;2022-10-03T16:05:28;3.00;;;1.67;;
73733;SDS011;62039;50.000;9.064;2022-10-03T16:07:56;2.10;;;1.60;;
73733;SDS011;62039;50.000;9.064;2022-10-03T16:10:26;3.57;;;2.70;;
73733;SDS011;62039;50.000;9.064;2022-10-03T16:12:59;5.93;;;5.33;;
73733;SDS011;62039;50.000;9.064;2022-10-03T16:15:35;7.57;;;6.80;;
73733;SDS011;62039;50.000;9.064;2022-10-03T16:21:08;5.03;;;4.20;;
73733;SDS011;62039;50.000;9.064;2022-10-03T16:23:39;3.97;;;3.30;;
73733;SDS011;62039;50.000;9.064;2022-10-03T16:26:10;4.87;;;3.70;;
73733;SDS011;62039;50.000;9.064;2022-10-03T16:28:44;3.50;;;3.20;;
73733;SDS011;62039;50.000;9.064;2022-10-03T16:31:17;5.07;;;3.70;;
73733;SDS011;62039;50.000;9.064;2022-10-03T16:33:48;4.77;;;3.50;;
73733;SDS011;62039;50.000;9.064;2022-10-03T16:36:23;3.30;;;3.00;;
73733;SDS011;62039;50.000;9.064;2022-10-03T16:38:51;3.53;;;2.83;;
73733;SDS011;62039;50.000;9.064;2022-10-03T16:41:21;3.23;;;2.10;;
73733;SDS011;62039;50.000;9.064;2022-10-03T16:43:54;2.37;;;2.00;;
73733;SDS011;62039;50.000;9.064;2022-10-03T16:46:23;1.63;;;1.53;;
73733;SDS011;62039;50.000;9.064;2022-10-03T16:48:52;4.07;;;2.43;;
73733;SDS011;62039;50.000;9.064;2022-10-03T16:51:22;2.93;;;2.20;;
73733;SDS011;62039;50.000;9.064;2022-10-03T16:53:52;3.23;;;2.50;;
73733;SDS011;62039;50.000;9.064;2022-10-03T16:56:21;2.53;;;2.10;;
73733;SDS011;62039;50.000;9.064;2022-10-03T16:58:50;3.43;;;2.20;;
73733;SDS011;62039;50.000;9.064;2022-10-03T17:01:25;3.60;;;3.30;;
73733;SDS011;62039;50.000;9.064;2022-10-03T17:03:57;3.93;;;2.83;;
73733;SDS011;62039;50.000;9.064;2022-10-03T17:06:31;3.60;;;2.80;;
73733;SDS011;62039;50.000;9.064;2022-10-03T17:09:01;4.60;;;3.07;;
73733;SDS011;62039;50.000;9.064;2022-10-03T17:11:29;4.17;;;3.10;;
73733;SDS011;62039;50.000;9.064;2022-10-03T17:14:00;3.90;;;3.13;;
73733;SDS011;62039;50.000;9.064;2022-10-03T17:16:33;2.67;;;2.43;;
73733;SDS011;62039;50.000;9.064;2022-10-03T17:19:07;4.73;;;2.83;;
73733;SDS011;62039;50.000;9.064;2022-10-03T17:21:41;3.77;;;2.47;;
73733;SDS011;62039;50.000;9.064;2022-10-03T17:24:14;3.40;;;2.20;;
73733;SDS011;62039;50.000;9.064;2022-10-03T17:26:44;2.97;;;2.13;;
73733;SDS011;62039;50.000;9.064;2022-10-03T17:29:14;2.30;;;2.10;;
73733;SDS011;62039;50.000;9.064;2022-10-03T17:31:47;4.23;;;2.43;;
73733;SDS011;62039;50.000;9.064;2022-10-03T17:34:19;3.23;;;2.27;;
73733;SDS011;62039;50.000;9.064;2022-10-03T17:36:54;3.00;;;2.70;;
73733;SDS011;62039;50.000;9.064;2022-10-03T17:39:42;3.37;;;3.07;;
73733;SDS011;62039;50.000;9.064;2022-10-03T17:42:25;4.83;;;3.77;;
73733;SDS011;62039;50.000;9.064;2022-10-03T17:44:56;3.90;;;3.00;;
73733;SDS011;62039;50.000;9.064;2022-10-03T17:47:31;3.37;;;3.07;;
73733;SDS011;62039;50.000;9.064;2022-10-03T17:50:04;5.03;;;2.73;;
73733;SDS011;62039;50.000;9.064;2022-10-03T17:52:38;4.23;;;2.83;;
73733;SDS011;62039;50.000;9.064;2022-10-03T17:55:06;5.77;;;2.80;;
73733;SDS011;62039;50.000;9.064;2022-10-03T17:57:38;3.67;;;2.73;;
73733;SDS011;62039;50.000;9.064;2022-10-03T18:00:15;4.30;;;2.83;;
73733;SDS011;62039;50.000;9.064;2022-10-03T18:02:49;3.83;;;2.90;;
73733;SDS011;62039;50.000;9.064;2022-10-03T18:05:21;5.03;;;3.70;;
73733;SDS011;62039;50.000;9.064;2022-10-03T18:07:52;5.53;;;5.03;;
73733;SDS011;62039;50.000;9.064;2022-10-03T18:10:20;6.23;;;5.40;;
73733;SDS011;62039;50.000;9.064;2022-10-03T18:12:50;7.77;;;6.90;;
73733;SDS011;62039;50.000;9.064;2022-10-03T18:15:31;7.27;;;5.97;;
73733;SDS011;62039;50.000;9.064;2022-10-03T18:18:17;6.03;;;5.20;;
73733;SDS011;62039;50.000;9.064;2022-10-03T18:21:03;6.13;;;5.20;;
73733;SDS011;62039;50.000;9.064;2022-10-03T18:23:36;8.00;;;5.50;;
73733;SDS011;62039;50.000;9.064;2022-10-03T18:26:22;6.13;;;5.53;;
73733;SDS011;62039;50.000;9.064;2022-10-03T18:28:54;7.40;;;5.60;;
73733;SDS011;62039;50.000;9.064;2022-10-03T18:31:29;6.53;;;5.03;;
73733;SDS011;62039;50.000;9.064;2022-10-03T18:34:00;5.57;;;4.93;;